createdAt,value
2023-03-13T00:02:20.749Z,5.45
2023-03-13T00:04:47.489Z,5.38
2023-03-13T00:07:14.542Z,4.78
2023-03-13T00:09:41.289Z,4.53
2023-03-13T00:12:08.145Z,5.10
2023-03-13T00:14:34.790Z,4.72
2023-03-13T00:17:03.103Z,5.68
2023-03-13T00:19:29.956Z,4.90
2023-03-13T00:21:56.629Z,5.68
2023-03-13T00:24:23.321Z,5.38
2023-03-13T00:26:50.012Z,5.47
2023-03-13T00:29:16.654Z,5.95
2023-03-13T00:31:43.457Z,4.40
2023-03-13T00:34:10.652Z,5.60
2023-03-13T00:36:37.812Z,5.22
2023-03-13T00:39:07.366Z,5.00
2023-03-13T00:41:34.421Z,5.25
2023-03-13T00:44:01.242Z,6.15
2023-03-13T00:46:30.305Z,4.97
2023-03-13T00:48:57.914Z,6.53
2023-03-13T00:51:27.101Z,6.00
2023-03-13T00:53:55.195Z,6.88
2023-03-13T00:56:22.594Z,5.85
2023-03-13T00:58:50.430Z,6.80
2023-03-13T01:01:26.529Z,6.68
2023-03-13T01:03:56.013Z,7.10
2023-03-13T01:06:26.528Z,7.95
2023-03-13T01:08:53.929Z,8.15
2023-03-13T01:11:23.505Z,7.35
2023-03-13T01:13:53.605Z,7.22
2023-03-13T01:16:22.120Z,7.30
2023-03-13T01:18:52.430Z,6.57
2023-03-13T01:21:20.452Z,6.53
2023-03-13T01:23:48.725Z,6.65
2023-03-13T01:26:15.927Z,6.22
2023-03-13T01:28:43.124Z,7.28
2023-03-13T01:31:19.266Z,6.32
2023-03-13T01:33:47.448Z,6.05
2023-03-13T01:36:15.207Z,5.60
2023-03-13T01:38:42.310Z,5.97
2023-03-13T01:41:11.840Z,4.93
2023-03-13T01:43:38.647Z,4.90
2023-03-13T01:46:19.371Z,6.40
2023-03-13T01:48:52.107Z,6.35
2023-03-13T01:51:33.974Z,7.65
2023-03-13T01:54:04.211Z,6.25
2023-03-13T01:57:00.357Z,6.60
2023-03-13T01:59:31.768Z,6.93
2023-03-13T02:02:01.549Z,6.57
2023-03-13T02:04:31.884Z,6.15
2023-03-13T02:07:03.865Z,6.90
2023-03-13T02:09:32.945Z,6.97
2023-03-13T02:12:22.840Z,6.70
2023-03-13T02:14:51.636Z,5.97
2023-03-13T02:17:18.626Z,5.50
2023-03-13T02:19:48.508Z,6.95
2023-03-13T02:22:21.353Z,5.95
2023-03-13T02:25:11.050Z,6.63
2023-03-13T02:27:37.902Z,6.25
2023-03-13T02:30:05.648Z,4.93
2023-03-13T02:32:32.681Z,4.85
2023-03-13T02:35:06.614Z,4.00
2023-03-13T02:37:33.702Z,4.20
2023-03-13T02:40:06.167Z,6.10
2023-03-13T02:42:32.946Z,4.45
2023-03-13T02:44:59.700Z,3.95
2023-03-13T02:47:26.520Z,4.55
2023-03-13T02:49:53.201Z,3.63
2023-03-13T02:52:38.963Z,3.55
2023-03-13T02:55:11.087Z,3.88
2023-03-13T02:57:37.812Z,4.18
2023-03-13T03:00:07.302Z,3.92
2023-03-13T03:02:33.996Z,4.15
2023-03-13T03:05:00.709Z,3.97
2023-03-13T03:07:27.455Z,5.25
2023-03-13T03:09:54.120Z,4.28
2023-03-13T03:12:20.841Z,4.07
2023-03-13T03:14:47.692Z,3.58
2023-03-13T03:17:14.518Z,3.85
2023-03-13T03:19:41.268Z,3.40
2023-03-13T03:22:08.092Z,3.05
2023-03-13T03:24:34.776Z,3.22
2023-03-13T03:27:01.457Z,3.70
2023-03-13T03:29:28.226Z,2.53
2023-03-13T03:31:55.270Z,3.70
2023-03-13T03:34:22.906Z,3.03
2023-03-13T03:36:49.675Z,2.83
2023-03-13T03:39:16.479Z,2.35
2023-03-13T03:41:43.166Z,2.33
2023-03-13T03:44:09.917Z,2.15
2023-03-13T03:46:36.581Z,2.08
2023-03-13T03:49:03.315Z,2.03
2023-03-13T03:51:30.037Z,2.25
2023-03-13T03:53:56.804Z,2.08
2023-03-13T03:56:23.590Z,2.30
2023-03-13T03:58:50.356Z,2.03
2023-03-13T04:01:17.078Z,2.03
2023-03-13T04:03:43.887Z,1.98
2023-03-13T04:06:10.697Z,2.20
2023-03-13T04:08:37.362Z,2.10
2023-03-13T04:11:04.132Z,2.15
2023-03-13T04:13:30.862Z,2.22
2023-03-13T04:15:57.566Z,2.30
2023-03-13T04:18:24.308Z,1.95
2023-03-13T04:20:51.053Z,1.80
2023-03-13T04:23:17.758Z,2.13
2023-03-13T04:25:44.498Z,2.08
2023-03-13T04:28:11.189Z,1.77
2023-03-13T04:30:37.893Z,2.45
2023-03-13T04:33:04.760Z,2.40
2023-03-13T04:35:32.391Z,2.38
2023-03-13T04:38:01.235Z,1.63
2023-03-13T04:40:28.135Z,2.78
2023-03-13T04:42:54.845Z,2.72
2023-03-13T04:45:21.573Z,2.45
2023-03-13T04:47:48.242Z,2.53
2023-03-13T04:50:15.291Z,2.05
2023-03-13T04:52:41.938Z,2.28
2023-03-13T04:55:09.500Z,2.30
2023-03-13T04:57:36.208Z,1.77
2023-03-13T05:00:05.450Z,2.10
2023-03-13T05:02:32.120Z,2.10
2023-03-13T05:04:58.894Z,2.08
2023-03-13T05:07:25.656Z,1.80
2023-03-13T05:09:52.381Z,1.65
2023-03-13T05:12:19.124Z,1.55
2023-03-13T05:14:45.805Z,1.38
2023-03-13T05:17:14.545Z,1.50
2023-03-13T05:19:41.249Z,1.30
2023-03-13T05:22:07.928Z,1.50
2023-03-13T05:24:34.649Z,1.30
2023-03-13T05:27:02.682Z,1.30
2023-03-13T05:29:29.379Z,1.20
2023-03-13T05:31:56.175Z,1.20
2023-03-13T05:34:22.974Z,1.30
2023-03-13T05:36:49.864Z,1.33
2023-03-13T05:39:16.700Z,1.20
2023-03-13T05:41:43.393Z,1.38
2023-03-13T05:44:10.109Z,1.20
2023-03-13T05:46:36.838Z,1.42
2023-03-13T05:49:03.641Z,1.40
2023-03-13T05:51:30.343Z,1.40
2023-03-13T05:53:57.056Z,1.42
2023-03-13T05:56:23.825Z,1.27
2023-03-13T05:58:50.561Z,1.30
2023-03-13T06:01:17.283Z,1.45
2023-03-13T06:03:44.144Z,1.40
2023-03-13T06:06:10.974Z,1.40
2023-03-13T06:08:37.693Z,1.33
2023-03-13T06:11:04.611Z,1.50
2023-03-13T06:13:31.347Z,1.40
2023-03-13T06:15:58.532Z,1.30
2023-03-13T06:18:25.678Z,1.40
2023-03-13T06:20:58.758Z,1.30
2023-03-13T06:23:25.931Z,1.58
2023-03-13T06:25:53.090Z,1.30
2023-03-13T06:28:19.792Z,1.50
2023-03-13T06:30:46.902Z,1.40
2023-03-13T06:33:13.645Z,1.60
2023-03-13T06:35:55.106Z,1.45
2023-03-13T06:38:24.876Z,1.35
2023-03-13T06:40:51.709Z,1.30
2023-03-13T06:43:18.973Z,1.40
2023-03-13T06:45:45.992Z,1.40
2023-03-13T06:48:12.732Z,1.38
2023-03-13T06:50:40.416Z,1.60
2023-03-13T06:53:07.286Z,1.75
2023-03-13T06:55:34.255Z,1.75
2023-03-13T06:58:01.030Z,1.90
2023-03-13T07:00:27.984Z,1.52
2023-03-13T07:02:54.727Z,1.50
2023-03-13T07:05:21.462Z,1.90
2023-03-13T07:07:48.206Z,1.65
2023-03-13T07:10:14.916Z,1.73
2023-03-13T07:12:41.654Z,1.52
2023-03-13T07:15:08.691Z,1.55
2023-03-13T07:17:35.605Z,1.35
2023-03-13T07:20:03.231Z,1.40
2023-03-13T07:22:30.037Z,1.10
2023-03-13T07:24:56.736Z,1.30
2023-03-13T07:27:23.723Z,1.30
2023-03-13T07:29:50.442Z,1.35
2023-03-13T07:32:17.232Z,1.23
2023-03-13T07:34:46.708Z,1.15
2023-03-13T07:37:14.429Z,1.77
2023-03-13T07:39:42.927Z,1.50
2023-03-13T07:42:13.540Z,1.50
2023-03-13T07:44:40.283Z,1.55
2023-03-13T07:47:07.026Z,1.58
2023-03-13T07:49:34.023Z,1.88
2023-03-13T07:52:00.717Z,1.60
2023-03-13T07:54:27.464Z,1.60
2023-03-13T07:56:54.193Z,1.85
2023-03-13T07:59:20.880Z,1.90
2023-03-13T08:01:47.611Z,1.85
2023-03-13T08:04:14.729Z,1.95
2023-03-13T08:06:42.303Z,2.00
2023-03-13T08:09:09.907Z,1.90
2023-03-13T08:11:44.703Z,1.70
2023-03-13T08:14:11.437Z,1.63
2023-03-13T08:16:38.690Z,1.60
2023-03-13T08:19:06.282Z,1.77
2023-03-13T08:21:35.864Z,2.53
2023-03-13T08:24:07.712Z,2.88
2023-03-13T08:26:36.492Z,2.00
2023-03-13T08:29:10.051Z,2.00
2023-03-13T08:31:48.067Z,2.60
2023-03-13T08:34:16.558Z,1.98
2023-03-13T08:36:43.640Z,1.40
2023-03-13T08:39:13.850Z,1.50
2023-03-13T08:41:43.306Z,1.80
2023-03-13T08:44:20.630Z,1.88
2023-03-13T08:46:49.413Z,1.65
2023-03-13T08:49:17.764Z,1.52
2023-03-13T08:51:44.681Z,1.30
2023-03-13T08:54:11.480Z,1.30
2023-03-13T08:56:38.543Z,1.83
2023-03-13T08:59:06.118Z,1.70
2023-03-13T09:01:34.821Z,1.67
2023-03-13T09:04:04.510Z,1.23
2023-03-13T09:06:36.157Z,1.70
2023-03-13T09:09:04.282Z,1.50
2023-03-13T09:11:33.333Z,1.33
2023-03-13T09:14:00.074Z,1.50
2023-03-13T09:16:29.727Z,1.70
2023-03-13T09:18:57.407Z,1.83
2023-03-13T09:21:27.130Z,1.42
2023-03-13T09:23:54.082Z,1.80
2023-03-13T09:26:23.130Z,1.80
2023-03-13T09:28:51.445Z,1.52
2023-03-13T09:31:30.473Z,1.92
2023-03-13T09:33:57.616Z,1.90
2023-03-13T09:36:25.122Z,2.13
2023-03-13T09:38:53.401Z,1.80
2023-03-13T09:41:53.367Z,2.42
2023-03-13T09:44:23.302Z,2.33
2023-03-13T09:47:04.310Z,1.58
2023-03-13T09:49:42.634Z,1.60
2023-03-13T09:52:17.203Z,1.52
2023-03-13T09:55:02.600Z,2.00
2023-03-13T09:57:36.401Z,1.70
2023-03-13T10:00:14.295Z,1.50
2023-03-13T10:02:47.763Z,1.40
2023-03-13T10:05:17.886Z,1.48
2023-03-13T10:07:44.937Z,1.98
2023-03-13T10:10:22.115Z,1.40
2023-03-13T10:12:52.751Z,1.52
2023-03-13T10:15:27.641Z,1.45
2023-03-13T10:17:54.775Z,1.40
2023-03-13T10:20:26.238Z,1.20
2023-03-13T10:22:59.783Z,1.40
2023-03-13T10:25:35.679Z,1.42
2023-03-13T10:28:02.595Z,1.20
2023-03-13T10:30:32.547Z,1.20
2023-03-13T10:33:20.928Z,1.45
2023-03-13T10:36:01.201Z,1.25
2023-03-13T10:38:28.013Z,1.33
2023-03-13T10:40:59.741Z,1.30
2023-03-13T10:43:27.913Z,1.38
2023-03-13T10:45:55.187Z,2.10
2023-03-13T10:48:24.706Z,1.10
2023-03-13T10:50:54.558Z,1.40
2023-03-13T10:53:39.168Z,1.20
2023-03-13T10:56:35.067Z,1.30
2023-03-13T10:59:01.958Z,1.48
2023-03-13T11:01:34.070Z,1.10
2023-03-13T11:04:19.987Z,1.15
2023-03-13T11:07:04.086Z,1.20
2023-03-13T11:09:31.461Z,1.55
2023-03-13T11:12:05.804Z,1.40
2023-03-13T11:14:32.680Z,1.35
2023-03-13T11:17:38.997Z,1.35
2023-03-13T11:20:08.825Z,1.20
2023-03-13T11:22:35.540Z,2.58
2023-03-13T11:25:23.856Z,1.40
2023-03-13T11:28:33.320Z,1.50
2023-03-13T11:31:08.372Z,1.40
2023-03-13T11:33:47.523Z,1.70
2023-03-13T11:36:17.061Z,2.88
2023-03-13T11:38:49.848Z,1.70
2023-03-13T11:41:32.475Z,1.60
2023-03-13T11:44:14.359Z,1.60
2023-03-13T11:46:54.791Z,1.40
2023-03-13T11:49:46.280Z,1.33
2023-03-13T11:52:26.223Z,1.30
2023-03-13T11:55:09.539Z,1.50
2023-03-13T11:57:42.307Z,2.25
2023-03-13T12:00:25.005Z,2.03
2023-03-13T12:03:30.753Z,1.90
2023-03-13T12:06:00.369Z,2.10
2023-03-13T12:08:39.174Z,2.30
2023-03-13T12:11:29.288Z,1.90
2023-03-13T12:14:08.524Z,1.90
2023-03-13T12:17:03.178Z,2.20
2023-03-13T12:20:15.795Z,2.58
2023-03-13T12:23:08.792Z,2.28
2023-03-13T12:25:48.189Z,1.95
2023-03-13T12:28:27.198Z,2.80
2023-03-13T12:31:18.447Z,2.78
2023-03-13T12:34:10.924Z,2.10
2023-03-13T12:37:06.999Z,1.65
2023-03-13T12:39:51.333Z,2.75
2023-03-13T12:42:30.271Z,1.83
2023-03-13T12:44:59.151Z,2.05
2023-03-13T12:48:04.399Z,2.65
2023-03-13T12:50:36.793Z,2.60
2023-03-13T12:53:31.398Z,2.60
2023-03-13T12:56:41.537Z,2.45
2023-03-13T12:59:47.556Z,2.42
2023-03-13T13:02:21.528Z,1.92
2023-03-13T13:04:51.097Z,5.15
2023-03-13T13:07:28.456Z,1.95
2023-03-13T13:10:09.749Z,2.83
2023-03-13T13:12:38.734Z,2.30
2023-03-13T13:15:17.829Z,2.38
2023-03-13T13:18:27.638Z,2.17
2023-03-13T13:21:05.052Z,3.08
2023-03-13T13:23:37.035Z,2.08
2023-03-13T13:26:29.878Z,2.40
2023-03-13T13:29:01.707Z,3.23
2023-03-13T13:31:51.271Z,3.22
2023-03-13T13:34:36.196Z,2.63
2023-03-13T13:37:11.988Z,2.40
2023-03-13T13:39:50.326Z,2.05
2023-03-13T13:42:43.995Z,2.40
2023-03-13T13:45:16.777Z,2.83
2023-03-13T13:47:49.615Z,3.35
2023-03-13T13:50:21.058Z,3.50
2023-03-13T13:52:49.051Z,3.00
2023-03-13T13:55:34.417Z,2.95
2023-03-13T13:58:14.309Z,3.55
2023-03-13T14:01:11.376Z,4.15
2023-03-13T14:03:43.354Z,3.47
2023-03-13T14:06:17.419Z,3.50
2023-03-13T14:08:47.057Z,3.70
2023-03-13T14:11:36.870Z,4.00
2023-03-13T14:14:10.971Z,5.85
2023-03-13T14:16:39.172Z,3.50
2023-03-13T14:19:05.999Z,3.53
2023-03-13T14:21:33.438Z,5.57
2023-03-13T14:24:00.224Z,3.85
2023-03-13T14:26:29.320Z,3.67
2023-03-13T14:29:07.397Z,4.05
2023-03-13T14:31:37.029Z,3.92
2023-03-13T14:34:06.646Z,4.28
2023-03-13T14:36:50.844Z,3.92
2023-03-13T14:39:42.676Z,4.22
2023-03-13T14:42:13.273Z,4.72
2023-03-13T14:44:43.022Z,4.68
2023-03-13T14:47:26.992Z,3.90
2023-03-13T14:50:26.438Z,5.43
2023-03-13T14:52:58.380Z,5.25
2023-03-13T14:55:24.995Z,6.32
2023-03-13T14:58:20.999Z,3.58
2023-03-13T15:00:49.062Z,4.45
2023-03-13T15:03:25.768Z,3.38
2023-03-13T15:06:17.653Z,3.47
2023-03-13T15:08:51.746Z,4.35
2023-03-13T15:11:27.530Z,5.60
2023-03-13T15:13:55.108Z,4.68
2023-03-13T15:16:23.293Z,4.55
2023-03-13T15:18:51.499Z,6.78
2023-03-13T15:21:30.387Z,4.47
2023-03-13T15:24:01.503Z,5.43
2023-03-13T15:26:29.072Z,4.68
2023-03-13T15:28:55.819Z,3.95
2023-03-13T15:31:28.005Z,4.10
2023-03-13T15:34:00.264Z,4.22
2023-03-13T15:36:28.929Z,4.00
2023-03-13T15:38:55.939Z,4.63
2023-03-13T15:41:23.422Z,6.20
2023-03-13T15:43:55.413Z,4.90
2023-03-13T15:46:23.459Z,4.10
2023-03-13T15:48:51.581Z,6.22
2023-03-13T15:51:18.565Z,5.03
2023-03-13T15:53:46.454Z,6.68
2023-03-13T15:56:22.985Z,5.88
2023-03-13T15:58:51.302Z,5.43
2023-03-13T16:01:19.133Z,6.22
2023-03-13T16:03:46.529Z,6.32
2023-03-13T16:06:17.892Z,5.80
2023-03-13T16:08:45.425Z,5.50
2023-03-13T16:11:15.018Z,4.93
2023-03-13T16:13:42.276Z,5.00
2023-03-13T16:16:18.942Z,3.92
2023-03-13T16:18:45.617Z,4.18
2023-03-13T16:21:22.228Z,3.63
2023-03-13T16:23:49.298Z,5.00
2023-03-13T16:26:21.861Z,3.42
2023-03-13T16:28:49.114Z,4.15
2023-03-13T16:31:23.552Z,3.30
2023-03-13T16:33:53.868Z,3.72
2023-03-13T16:36:28.230Z,5.05
2023-03-13T16:38:55.135Z,3.83
2023-03-13T16:41:27.701Z,6.00
2023-03-13T16:43:55.595Z,5.07
2023-03-13T16:46:32.878Z,4.45
2023-03-13T16:48:59.889Z,4.10
2023-03-13T16:51:28.263Z,6.90
2023-03-13T16:53:57.662Z,4.97
2023-03-13T16:56:30.533Z,6.53
2023-03-13T16:58:58.539Z,4.40
2023-03-13T17:01:26.250Z,4.53
2023-03-13T17:03:53.644Z,4.07
2023-03-13T17:06:33.127Z,4.35
2023-03-13T17:09:04.056Z,3.90
2023-03-13T17:11:33.619Z,4.50
2023-03-13T17:14:00.528Z,5.50
2023-03-13T17:16:33.540Z,4.38
2023-03-13T17:19:01.654Z,5.93
2023-03-13T17:21:32.004Z,4.85
2023-03-13T17:24:00.778Z,3.95
2023-03-13T17:26:40.441Z,4.18
2023-03-13T17:29:08.608Z,3.90
2023-03-13T17:31:38.673Z,3.92
2023-03-13T17:34:06.894Z,4.25
2023-03-13T17:36:34.966Z,3.92
2023-03-13T17:39:05.515Z,4.70
2023-03-13T17:41:34.882Z,5.70
2023-03-13T17:44:03.727Z,4.93
2023-03-13T17:46:42.337Z,4.22
2023-03-13T17:49:12.469Z,4.55
2023-03-13T17:51:41.723Z,3.30
2023-03-13T17:54:09.363Z,5.03
2023-03-13T17:56:39.562Z,4.03
2023-03-13T17:59:14.834Z,4.25
2023-03-13T18:01:42.532Z,4.72
2023-03-13T18:04:10.580Z,4.50
2023-03-13T18:06:40.614Z,4.75
2023-03-13T18:09:12.465Z,4.55
2023-03-13T18:11:40.028Z,4.53
2023-03-13T18:14:09.560Z,5.82
2023-03-13T18:16:54.508Z,6.97
2023-03-13T18:19:26.054Z,4.43
2023-03-13T18:21:56.131Z,5.72
2023-03-13T18:24:23.071Z,6.20
2023-03-13T18:26:50.384Z,5.35
2023-03-13T18:29:26.906Z,5.53
2023-03-13T18:31:55.457Z,5.78
2023-03-13T18:34:23.758Z,5.40
2023-03-13T18:36:52.254Z,10.07
2023-03-13T18:39:20.368Z,8.60
2023-03-13T18:41:49.018Z,8.50
2023-03-13T18:44:21.463Z,6.82
2023-03-13T18:46:49.324Z,6.47
2023-03-13T18:49:22.474Z,5.82
2023-03-13T18:51:51.011Z,5.95
2023-03-13T18:54:18.268Z,5.70
2023-03-13T18:56:47.624Z,5.80
2023-03-13T18:59:20.786Z,4.95
2023-03-13T19:04:16.001Z,3.88
2023-03-13T19:06:43.700Z,5.20
2023-03-13T19:09:41.571Z,5.75
2023-03-13T19:12:04.594Z,6.55
2023-03-13T19:14:31.386Z,5.85
2023-03-13T19:16:58.467Z,5.13
2023-03-13T19:19:26.391Z,5.90
2023-03-13T19:21:56.902Z,5.55
2023-03-13T19:24:26.791Z,6.03
2023-03-13T19:26:59.032Z,5.28
2023-03-13T19:29:28.200Z,6.72
2023-03-13T19:31:55.222Z,7.18
2023-03-13T19:34:22.357Z,6.20
2023-03-13T19:36:50.211Z,6.18
2023-03-13T19:39:25.541Z,6.25
2023-03-13T19:41:53.285Z,5.35
2023-03-13T19:44:20.884Z,6.05
2023-03-13T19:46:48.355Z,4.68
2023-03-13T19:49:17.767Z,5.15
2023-03-13T19:51:45.065Z,4.72
2023-03-13T19:54:12.349Z,5.15
2023-03-13T19:56:41.539Z,5.72
2023-03-13T19:59:17.788Z,4.90
2023-03-13T20:01:44.959Z,4.78
2023-03-13T20:04:12.292Z,4.45
2023-03-13T20:06:40.268Z,4.30
2023-03-13T20:09:10.252Z,4.72
2023-03-13T20:11:37.439Z,4.60
2023-03-13T20:14:05.211Z,4.45
2023-03-13T20:16:33.714Z,3.83
2023-03-13T20:19:02.550Z,4.95
2023-03-13T20:21:31.874Z,4.10
2023-03-13T20:23:59.549Z,6.88
2023-03-13T20:26:27.797Z,5.63
2023-03-13T20:28:55.367Z,5.63
2023-03-13T20:31:25.341Z,7.97
2023-03-13T20:33:52.148Z,3.85
2023-03-13T20:36:20.538Z,4.85
2023-03-13T20:38:47.738Z,3.50
2023-03-13T20:41:16.289Z,4.88
2023-03-13T20:43:43.604Z,3.70
2023-03-13T20:46:10.357Z,3.55
2023-03-13T20:48:39.443Z,3.10
2023-03-13T20:51:08.098Z,4.30
2023-03-13T20:53:39.106Z,3.03
2023-03-13T20:56:07.529Z,3.78
2023-03-13T20:58:35.436Z,3.83
2023-03-13T21:01:03.991Z,4.35
2023-03-13T21:03:35.509Z,3.72
2023-03-13T21:06:13.327Z,3.47
2023-03-13T21:08:40.293Z,3.78
2023-03-13T21:11:19.579Z,2.95
2023-03-13T21:13:46.497Z,4.57
2023-03-13T21:16:14.007Z,3.55
2023-03-13T21:18:41.201Z,4.93
2023-03-13T21:21:10.617Z,2.72
2023-03-13T21:23:39.117Z,4.18
2023-03-13T21:26:06.378Z,3.72
2023-03-13T21:28:33.267Z,7.68
2023-03-13T21:31:08.896Z,6.22
2023-03-13T21:33:35.748Z,4.20
2023-03-13T21:36:02.498Z,3.10
2023-03-13T21:38:29.304Z,4.13
2023-03-13T21:40:56.024Z,4.40
2023-03-13T21:43:23.888Z,4.07
2023-03-13T21:45:50.616Z,4.25
2023-03-13T21:48:17.276Z,4.78
2023-03-13T21:50:44.160Z,4.88
2023-03-13T21:53:10.821Z,4.00
2023-03-13T21:55:40.005Z,4.55
2023-03-13T21:58:06.666Z,4.07
2023-03-13T22:00:34.031Z,2.80
2023-03-13T22:03:00.861Z,2.85
2023-03-13T22:05:27.569Z,2.47
2023-03-13T22:07:55.689Z,3.22
2023-03-13T22:10:22.650Z,2.63
2023-03-13T22:12:49.321Z,2.65
2023-03-13T22:15:15.999Z,2.70
2023-03-13T22:17:42.750Z,2.17
2023-03-13T22:20:10.443Z,2.75
2023-03-13T22:22:37.134Z,2.85
2023-03-13T22:25:04.009Z,2.65
2023-03-13T22:27:30.667Z,5.28
2023-03-13T22:29:57.931Z,3.15
2023-03-13T22:32:25.956Z,3.10
2023-03-13T22:34:52.720Z,2.70
2023-03-13T22:37:21.895Z,2.80
2023-03-13T22:39:50.133Z,3.33
2023-03-13T22:42:16.923Z,2.90
2023-03-13T22:44:43.616Z,3.55
2023-03-13T22:47:10.327Z,2.42
2023-03-13T22:49:37.186Z,2.92
2023-03-13T22:52:04.166Z,2.92
2023-03-13T22:54:30.977Z,2.80
2023-03-13T22:56:57.641Z,2.40
2023-03-13T22:59:24.743Z,3.05
2023-03-13T23:01:51.475Z,2.78
2023-03-13T23:04:18.124Z,2.85
2023-03-13T23:06:44.851Z,2.58
2023-03-13T23:09:11.686Z,2.45
2023-03-13T23:11:38.533Z,2.17
2023-03-13T23:14:05.231Z,2.60
2023-03-13T23:16:32.129Z,2.65
2023-03-13T23:19:05.974Z,2.95
2023-03-13T23:21:32.726Z,2.50
2023-03-13T23:23:59.770Z,2.40
2023-03-13T23:26:26.474Z,2.50
2023-03-13T23:28:53.121Z,2.50
2023-03-13T23:31:21.768Z,2.30
2023-03-13T23:33:49.345Z,2.13
2023-03-13T23:36:19.990Z,2.53
2023-03-13T23:38:52.257Z,2.03
2023-03-13T23:41:20.826Z,2.80
2023-03-13T23:43:47.746Z,2.63
2023-03-13T23:46:19.398Z,2.38
2023-03-13T23:48:46.185Z,2.10
2023-03-13T23:51:12.956Z,2.20
2023-03-13T23:53:41.667Z,2.15
2023-03-13T23:56:09.043Z,2.10
2023-03-13T23:58:35.878Z,2.03
